sensor_id;sensor_type;location;lat;lon;timestamp;temperature;humidity
5086;DHT22;4715;51.660;7.082;2022-08-07T00:02:20;17.50;99.90
5086;DHT22;4715;51.660;7.082;2022-08-07T00:04:42;17.40;99.90
5086;DHT22;4715;51.660;7.082;2022-08-07T00:07:04;17.40;99.90
5086;DHT22;4715;51.660;7.082;2022-08-07T00:09:26;17.40;99.90
5086;DHT22;4715;51.660;7.082;2022-08-07T00:11:48;17.40;99.90
5086;DHT22;4715;51.660;7.082;2022-08-07T00:14:10;17.30;99.90
5086;DHT22;4715;51.660;7.082;2022-08-07T00:16:33;17.30;99.90
5086;DHT22;4715;51.660;7.082;2022-08-07T00:18:55;17.30;99.90
5086;DHT22;4715;51.660;7.082;2022-08-07T00:21:17;17.30;99.90
5086;DHT22;4715;51.660;7.082;2022-08-07T00:23:39;17.30;99.90
5086;DHT22;4715;51.660;7.082;2022-08-07T00:26:03;17.30;99.90
5086;DHT22;4715;51.660;7.082;2022-08-07T00:28:26;17.20;99.90
5086;DHT22;4715;51.660;7.082;2022-08-07T00:30:48;17.20;99.90
5086;DHT22;4715;51.660;7.082;2022-08-07T00:33:11;17.20;99.90
5086;DHT22;4715;51.660;7.082;2022-08-07T00:35:33;17.10;99.90
5086;DHT22;4715;51.660;7.082;2022-08-07T00:37:56;17.10;99.90
5086;DHT22;4715;51.660;7.082;2022-08-07T00:40:18;17.00;99.90
5086;DHT22;4715;51.660;7.082;2022-08-07T00:42:40;17.00;99.90
5086;DHT22;4715;51.660;7.082;2022-08-07T00:45:02;16.90;99.90
5086;DHT22;4715;51.660;7.082;2022-08-07T00:47:24;16.90;99.90
5086;DHT22;4715;51.660;7.082;2022-08-07T00:49:48;16.80;99.90
5086;DHT22;4715;51.660;7.082;2022-08-07T00:52:09;16.80;99.90
5086;DHT22;4715;51.660;7.082;2022-08-07T00:54:31;16.80;99.90
5086;DHT22;4715;51.660;7.082;2022-08-07T00:56:53;16.70;99.90
5086;DHT22;4715;51.660;7.082;2022-08-07T00:59:15;16.70;99.90
5086;DHT22;4715;51.660;7.082;2022-08-07T01:01:37;16.80;99.90
5086;DHT22;4715;51.660;7.082;2022-08-07T01:04:00;16.70;99.90
5086;DHT22;4715;51.660;7.082;2022-08-07T01:06:26;16.70;99.90
5086;DHT22;4715;51.660;7.082;2022-08-07T01:08:48;16.70;99.90
5086;DHT22;4715;51.660;7.082;2022-08-07T01:11:12;16.70;99.90
5086;DHT22;4715;51.660;7.082;2022-08-07T01:13:34;16.70;99.90
5086;DHT22;4715;51.660;7.082;2022-08-07T01:15:57;16.70;99.90
5086;DHT22;4715;51.660;7.082;2022-08-07T01:18:19;16.60;99.90
5086;DHT22;4715;51.660;7.082;2022-08-07T01:20:45;16.60;99.90
5086;DHT22;4715;51.660;7.082;2022-08-07T01:23:11;16.50;99.90
5086;DHT22;4715;51.660;7.082;2022-08-07T01:25:33;16.50;99.90
5086;DHT22;4715;51.660;7.082;2022-08-07T01:27:55;16.50;99.90
5086;DHT22;4715;51.660;7.082;2022-08-07T01:30:18;16.50;99.90
5086;DHT22;4715;51.660;7.082;2022-08-07T01:32:40;16.50;99.90
5086;DHT22;4715;51.660;7.082;2022-08-07T01:35:02;16.40;99.90
5086;DHT22;4715;51.660;7.082;2022-08-07T01:37:25;16.40;99.90
5086;DHT22;4715;51.660;7.082;2022-08-07T01:39:48;16.40;99.90
5086;DHT22;4715;51.660;7.082;2022-08-07T01:42:11;16.40;99.90
5086;DHT22;4715;51.660;7.082;2022-08-07T01:44:33;16.40;99.90
5086;DHT22;4715;51.660;7.082;2022-08-07T01:46:56;16.30;99.90
5086;DHT22;4715;51.660;7.082;2022-08-07T01:49:19;16.30;99.90
5086;DHT22;4715;51.660;7.082;2022-08-07T01:51:42;16.30;99.90
5086;DHT22;4715;51.660;7.082;2022-08-07T01:54:08;16.30;99.90
5086;DHT22;4715;51.660;7.082;2022-08-07T01:56:37;16.20;99.90
5086;DHT22;4715;51.660;7.082;2022-08-07T01:59:05;16.20;99.90
5086;DHT22;4715;51.660;7.082;2022-08-07T02:01:32;16.10;99.90
5086;DHT22;4715;51.660;7.082;2022-08-07T02:04:00;16.10;99.90
5086;DHT22;4715;51.660;7.082;2022-08-07T02:06:24;16.10;99.90
5086;DHT22;4715;51.660;7.082;2022-08-07T02:08:48;16.10;99.90
5086;DHT22;4715;51.660;7.082;2022-08-07T02:11:11;16.10;99.90
5086;DHT22;4715;51.660;7.082;2022-08-07T02:13:36;16.10;99.90
5086;DHT22;4715;51.660;7.082;2022-08-07T02:16:00;16.10;99.90
5086;DHT22;4715;51.660;7.082;2022-08-07T02:18:26;16.10;99.90
5086;DHT22;4715;51.660;7.082;2022-08-07T02:20:50;16.10;99.90
5086;DHT22;4715;51.660;7.082;2022-08-07T02:23:13;16.10;99.90
5086;DHT22;4715;51.660;7.082;2022-08-07T02:25:37;16.10;99.90
5086;DHT22;4715;51.660;7.082;2022-08-07T02:28:00;16.10;99.90
5086;DHT22;4715;51.660;7.082;2022-08-07T02:30:24;16.10;99.90
5086;DHT22;4715;51.660;7.082;2022-08-07T02:32:48;16.10;99.90
5086;DHT22;4715;51.660;7.082;2022-08-07T02:35:11;16.00;99.90
5086;DHT22;4715;51.660;7.082;2022-08-07T02:37:39;16.00;99.90
5086;DHT22;4715;51.660;7.082;2022-08-07T02:40:03;16.00;99.90
5086;DHT22;4715;51.660;7.082;2022-08-07T02:42:26;15.90;99.90
5086;DHT22;4715;51.660;7.082;2022-08-07T02:44:50;15.90;99.90
5086;DHT22;4715;51.660;7.082;2022-08-07T02:47:15;15.90;99.90
5086;DHT22;4715;51.660;7.082;2022-08-07T02:49:38;15.90;99.90
5086;DHT22;4715;51.660;7.082;2022-08-07T02:52:02;15.80;99.90
5086;DHT22;4715;51.660;7.082;2022-08-07T02:54:26;15.80;99.90
5086;DHT22;4715;51.660;7.082;2022-08-07T02:56:50;15.80;99.90
5086;DHT22;4715;51.660;7.082;2022-08-07T02:59:17;15.70;99.90
5086;DHT22;4715;51.660;7.082;2022-08-07T03:01:40;15.80;99.90
5086;DHT22;4715;51.660;7.082;2022-08-07T03:04:06;15.70;99.90
5086;DHT22;4715;51.660;7.082;2022-08-07T03:06:29;15.70;99.90
5086;DHT22;4715;51.660;7.082;2022-08-07T03:08:51;15.70;99.90
5086;DHT22;4715;51.660;7.082;2022-08-07T03:11:14;15.70;99.90
5086;DHT22;4715;51.660;7.082;2022-08-07T03:13:37;15.60;99.90
5086;DHT22;4715;51.660;7.082;2022-08-07T03:15:59;15.60;99.90
5086;DHT22;4715;51.660;7.082;2022-08-07T03:18:21;15.60;99.90
5086;DHT22;4715;51.660;7.082;2022-08-07T03:20:45;15.50;99.90
5086;DHT22;4715;51.660;7.082;2022-08-07T03:23:08;15.50;99.90
5086;DHT22;4715;51.660;7.082;2022-08-07T03:25:31;15.40;99.90
5086;DHT22;4715;51.660;7.082;2022-08-07T03:27:54;15.40;99.90
5086;DHT22;4715;51.660;7.082;2022-08-07T03:30:18;15.40;99.90
5086;DHT22;4715;51.660;7.082;2022-08-07T03:32:41;15.40;99.90
5086;DHT22;4715;51.660;7.082;2022-08-07T03:35:05;15.30;99.90
5086;DHT22;4715;51.660;7.082;2022-08-07T03:37:30;15.30;99.90
5086;DHT22;4715;51.660;7.082;2022-08-07T03:39:53;15.30;99.90
5086;DHT22;4715;51.660;7.082;2022-08-07T03:42:16;15.20;99.90
5086;DHT22;4715;51.660;7.082;2022-08-07T03:44:39;15.20;99.90
5086;DHT22;4715;51.660;7.082;2022-08-07T03:47:01;15.20;99.90
5086;DHT22;4715;51.660;7.082;2022-08-07T03:49:24;15.20;99.90
5086;DHT22;4715;51.660;7.082;2022-08-07T03:51:46;15.20;99.90
5086;DHT22;4715;51.660;7.082;2022-08-07T03:54:10;15.20;99.90
5086;DHT22;4715;51.660;7.082;2022-08-07T03:56:33;15.20;99.90
5086;DHT22;4715;51.660;7.082;2022-08-07T03:58:56;15.20;99.90
5086;DHT22;4715;51.660;7.082;2022-08-07T04:01:19;15.20;99.90
5086;DHT22;4715;51.660;7.082;2022-08-07T04:03:42;15.20;99.90
5086;DHT22;4715;51.660;7.082;2022-08-07T04:06:07;15.20;99.90
5086;DHT22;4715;51.660;7.082;2022-08-07T04:08:29;15.20;99.90
5086;DHT22;4715;51.660;7.082;2022-08-07T04:10:53;15.20;99.90
5086;DHT22;4715;51.660;7.082;2022-08-07T04:13:14;15.20;99.90
5086;DHT22;4715;51.660;7.082;2022-08-07T04:15:37;15.20;99.90
5086;DHT22;4715;51.660;7.082;2022-08-07T04:17:59;15.20;99.90
5086;DHT22;4715;51.660;7.082;2022-08-07T04:20:21;15.20;99.90
5086;DHT22;4715;51.660;7.082;2022-08-07T04:22:43;15.10;99.90
5086;DHT22;4715;51.660;7.082;2022-08-07T04:25:06;15.10;99.90
5086;DHT22;4715;51.660;7.082;2022-08-07T04:27:30;15.10;99.90
5086;DHT22;4715;51.660;7.082;2022-08-07T04:29:52;15.10;99.90
5086;DHT22;4715;51.660;7.082;2022-08-07T04:32:14;15.10;99.90
5086;DHT22;4715;51.660;7.082;2022-08-07T04:34:37;15.10;99.90
5086;DHT22;4715;51.660;7.082;2022-08-07T04:36:59;15.10;99.90
5086;DHT22;4715;51.660;7.082;2022-08-07T04:39:21;15.10;99.90
5086;DHT22;4715;51.660;7.082;2022-08-07T04:41:43;15.10;99.90
5086;DHT22;4715;51.660;7.082;2022-08-07T04:44:06;15.10;99.90
5086;DHT22;4715;51.660;7.082;2022-08-07T04:46:32;15.20;99.90
5086;DHT22;4715;51.660;7.082;2022-08-07T04:49:02;15.20;99.90
5086;DHT22;4715;51.660;7.082;2022-08-07T04:51:31;15.20;99.90
5086;DHT22;4715;51.660;7.082;2022-08-07T04:53:59;15.20;99.90
5086;DHT22;4715;51.660;7.082;2022-08-07T04:56:28;15.20;99.90
5086;DHT22;4715;51.660;7.082;2022-08-07T04:58:55;15.30;99.90
5086;DHT22;4715;51.660;7.082;2022-08-07T05:01:26;15.30;99.90
5086;DHT22;4715;51.660;7.082;2022-08-07T05:03:59;15.30;99.90
5086;DHT22;4715;51.660;7.082;2022-08-07T05:06:26;15.30;99.90
5086;DHT22;4715;51.660;7.082;2022-08-07T05:08:59;15.30;99.90
5086;DHT22;4715;51.660;7.082;2022-08-07T05:11:29;15.40;99.90
5086;DHT22;4715;51.660;7.082;2022-08-07T05:13:54;15.40;99.90
5086;DHT22;4715;51.660;7.082;2022-08-07T05:16:21;15.40;99.90
5086;DHT22;4715;51.660;7.082;2022-08-07T05:18:50;15.50;99.90
5086;DHT22;4715;51.660;7.082;2022-08-07T05:21:16;15.50;99.90
5086;DHT22;4715;51.660;7.082;2022-08-07T05:23:44;15.50;99.90
5086;DHT22;4715;51.660;7.082;2022-08-07T05:26:11;15.60;99.90
5086;DHT22;4715;51.660;7.082;2022-08-07T05:28:34;15.60;99.90
5086;DHT22;4715;51.660;7.082;2022-08-07T05:30:58;15.70;99.90
5086;DHT22;4715;51.660;7.082;2022-08-07T05:33:23;15.70;99.90
5086;DHT22;4715;51.660;7.082;2022-08-07T05:35:49;15.80;99.90
5086;DHT22;4715;51.660;7.082;2022-08-07T05:38:11;15.80;99.90
5086;DHT22;4715;51.660;7.082;2022-08-07T05:40:36;15.90;99.90
5086;DHT22;4715;51.660;7.082;2022-08-07T05:42:59;15.90;99.90
5086;DHT22;4715;51.660;7.082;2022-08-07T05:45:21;16.00;99.90
5086;DHT22;4715;51.660;7.082;2022-08-07T05:47:44;16.10;99.90
5086;DHT22;4715;51.660;7.082;2022-08-07T05:50:08;16.20;99.90
5086;DHT22;4715;51.660;7.082;2022-08-07T05:52:31;16.20;99.90
5086;DHT22;4715;51.660;7.082;2022-08-07T05:54:53;16.30;99.90
5086;DHT22;4715;51.660;7.082;2022-08-07T05:57:16;16.30;99.90
5086;DHT22;4715;51.660;7.082;2022-08-07T05:59:39;16.40;99.90
5086;DHT22;4715;51.660;7.082;2022-08-07T06:02:04;16.40;99.90
5086;DHT22;4715;51.660;7.082;2022-08-07T06:04:27;16.50;99.90
5086;DHT22;4715;51.660;7.082;2022-08-07T06:06:51;16.50;99.90
5086;DHT22;4715;51.660;7.082;2022-08-07T06:09:14;16.60;99.90
5086;DHT22;4715;51.660;7.082;2022-08-07T06:11:37;16.60;99.90
5086;DHT22;4715;51.660;7.082;2022-08-07T06:14:00;16.70;99.90
5086;DHT22;4715;51.660;7.082;2022-08-07T06:16:22;16.70;99.90
5086;DHT22;4715;51.660;7.082;2022-08-07T06:18:48;16.70;99.90
5086;DHT22;4715;51.660;7.082;2022-08-07T06:21:10;16.80;99.90
5086;DHT22;4715;51.660;7.082;2022-08-07T06:23:36;16.80;99.90
5086;DHT22;4715;51.660;7.082;2022-08-07T06:26:00;16.90;99.90
5086;DHT22;4715;51.660;7.082;2022-08-07T06:28:23;16.90;99.90
5086;DHT22;4715;51.660;7.082;2022-08-07T06:30:45;17.00;99.90
5086;DHT22;4715;51.660;7.082;2022-08-07T06:33:07;17.00;99.90
5086;DHT22;4715;51.660;7.082;2022-08-07T06:35:29;17.10;99.90
5086;DHT22;4715;51.660;7.082;2022-08-07T06:37:51;17.20;99.90
5086;DHT22;4715;51.660;7.082;2022-08-07T06:40:14;17.20;99.90
5086;DHT22;4715;51.660;7.082;2022-08-07T06:42:38;17.30;99.90
5086;DHT22;4715;51.660;7.082;2022-08-07T06:45:05;17.40;99.90
5086;DHT22;4715;51.660;7.082;2022-08-07T06:47:28;17.50;99.90
5086;DHT22;4715;51.660;7.082;2022-08-07T06:49:50;17.50;99.90
5086;DHT22;4715;51.660;7.082;2022-08-07T06:52:15;17.60;99.90
5086;DHT22;4715;51.660;7.082;2022-08-07T06:54:38;17.70;99.90
5086;DHT22;4715;51.660;7.082;2022-08-07T06:57:03;17.90;99.90
5086;DHT22;4715;51.660;7.082;2022-08-07T06:59:30;18.00;99.90
5086;DHT22;4715;51.660;7.082;2022-08-07T07:01:53;18.10;99.90
5086;DHT22;4715;51.660;7.082;2022-08-07T07:04:17;18.20;99.90
5086;DHT22;4715;51.660;7.082;2022-08-07T07:06:40;18.30;99.90
5086;DHT22;4715;51.660;7.082;2022-08-07T07:09:21;18.40;99.90
5086;DHT22;4715;51.660;7.082;2022-08-07T07:11:52;18.60;99.90
5086;DHT22;4715;51.660;7.082;2022-08-07T07:14:21;18.70;99.90
5086;DHT22;4715;51.660;7.082;2022-08-07T07:16:45;18.90;99.90
5086;DHT22;4715;51.660;7.082;2022-08-07T07:19:09;18.90;99.90
5086;DHT22;4715;51.660;7.082;2022-08-07T07:21:37;19.00;99.90
5086;DHT22;4715;51.660;7.082;2022-08-07T07:24:01;19.20;99.90
5086;DHT22;4715;51.660;7.082;2022-08-07T07:26:24;19.30;99.90
5086;DHT22;4715;51.660;7.082;2022-08-07T07:28:53;19.40;99.90
5086;DHT22;4715;51.660;7.082;2022-08-07T07:31:24;19.50;99.90
5086;DHT22;4715;51.660;7.082;2022-08-07T07:33:53;19.70;99.90
5086;DHT22;4715;51.660;7.082;2022-08-07T07:36:17;19.80;99.90
5086;DHT22;4715;51.660;7.082;2022-08-07T07:38:42;19.90;99.90
5086;DHT22;4715;51.660;7.082;2022-08-07T07:41:06;20.00;99.90
5086;DHT22;4715;51.660;7.082;2022-08-07T07:43:30;20.10;99.90
5086;DHT22;4715;51.660;7.082;2022-08-07T07:45:55;20.30;99.90
5086;DHT22;4715;51.660;7.082;2022-08-07T07:48:21;20.40;99.90
5086;DHT22;4715;51.660;7.082;2022-08-07T07:50:47;20.60;99.90
5086;DHT22;4715;51.660;7.082;2022-08-07T07:53:12;20.70;99.90
5086;DHT22;4715;51.660;7.082;2022-08-07T07:55:35;20.80;99.90
5086;DHT22;4715;51.660;7.082;2022-08-07T07:57:59;20.90;99.90
5086;DHT22;4715;51.660;7.082;2022-08-07T08:00:28;21.00;99.90
5086;DHT22;4715;51.660;7.082;2022-08-07T08:02:53;21.10;99.90
5086;DHT22;4715;51.660;7.082;2022-08-07T08:05:18;21.20;99.90
5086;DHT22;4715;51.660;7.082;2022-08-07T08:07:42;21.30;99.90
5086;DHT22;4715;51.660;7.082;2022-08-07T08:10:07;21.40;99.90
5086;DHT22;4715;51.660;7.082;2022-08-07T08:12:30;21.60;99.90
5086;DHT22;4715;51.660;7.082;2022-08-07T08:14:52;21.60;99.90
5086;DHT22;4715;51.660;7.082;2022-08-07T08:17:15;21.70;99.90
5086;DHT22;4715;51.660;7.082;2022-08-07T08:19:38;21.90;99.90
5086;DHT22;4715;51.660;7.082;2022-08-07T08:22:04;22.00;99.90
5086;DHT22;4715;51.660;7.082;2022-08-07T08:24:45;22.10;99.90
5086;DHT22;4715;51.660;7.082;2022-08-07T08:27:28;22.20;99.90
5086;DHT22;4715;51.660;7.082;2022-08-07T08:29:57;22.20;99.90
5086;DHT22;4715;51.660;7.082;2022-08-07T08:32:25;22.40;99.90
5086;DHT22;4715;51.660;7.082;2022-08-07T08:34:49;22.40;99.90
5086;DHT22;4715;51.660;7.082;2022-08-07T08:37:16;22.50;99.90
5086;DHT22;4715;51.660;7.082;2022-08-07T08:39:39;22.60;99.90
5086;DHT22;4715;51.660;7.082;2022-08-07T08:42:06;22.50;99.90
5086;DHT22;4715;51.660;7.082;2022-08-07T08:44:35;22.50;99.90
5086;DHT22;4715;51.660;7.082;2022-08-07T08:47:05;22.70;99.90
5086;DHT22;4715;51.660;7.082;2022-08-07T08:49:32;22.90;99.90
5086;DHT22;4715;51.660;7.082;2022-08-07T08:52:05;23.10;99.90
5086;DHT22;4715;51.660;7.082;2022-08-07T08:54:34;23.20;99.90
5086;DHT22;4715;51.660;7.082;2022-08-07T08:57:11;23.30;99.90
5086;DHT22;4715;51.660;7.082;2022-08-07T08:59:44;23.40;99.90
5086;DHT22;4715;51.660;7.082;2022-08-07T09:02:14;23.40;99.90
5086;DHT22;4715;51.660;7.082;2022-08-07T09:04:45;23.50;99.90
5086;DHT22;4715;51.660;7.082;2022-08-07T09:07:13;23.50;99.90
5086;DHT22;4715;51.660;7.082;2022-08-07T09:09:50;23.60;99.90
5086;DHT22;4715;51.660;7.082;2022-08-07T09:15:09;23.80;99.20
5086;DHT22;4715;51.660;7.082;2022-08-07T09:17:40;23.90;98.80
5086;DHT22;4715;51.660;7.082;2022-08-07T09:20:17;24.00;98.50
5086;DHT22;4715;51.660;7.082;2022-08-07T09:22:55;24.10;97.70
5086;DHT22;4715;51.660;7.082;2022-08-07T09:25:25;24.20;97.50
5086;DHT22;4715;51.660;7.082;2022-08-07T09:27:59;24.30;97.20
5086;DHT22;4715;51.660;7.082;2022-08-07T09:30:23;24.40;96.90
5086;DHT22;4715;51.660;7.082;2022-08-07T09:32:59;24.50;96.70
5086;DHT22;4715;51.660;7.082;2022-08-07T09:35:45;24.60;96.10
5086;DHT22;4715;51.660;7.082;2022-08-07T09:38:20;24.70;95.60
5086;DHT22;4715;51.660;7.082;2022-08-07T09:40:56;24.70;94.90
5086;DHT22;4715;51.660;7.082;2022-08-07T09:43:30;24.70;94.70
5086;DHT22;4715;51.660;7.082;2022-08-07T09:46:03;24.80;94.50
5086;DHT22;4715;51.660;7.082;2022-08-07T09:48:35;24.90;94.10
5086;DHT22;4715;51.660;7.082;2022-08-07T09:51:14;25.00;93.90
5086;DHT22;4715;51.660;7.082;2022-08-07T09:53:44;25.20;93.60
5086;DHT22;4715;51.660;7.082;2022-08-07T09:56:45;25.20;93.40
5086;DHT22;4715;51.660;7.082;2022-08-07T10:02:18;25.40;92.50
5086;DHT22;4715;51.660;7.082;2022-08-07T10:05:00;25.40;92.20
5086;DHT22;4715;51.660;7.082;2022-08-07T10:07:39;25.50;91.90
5086;DHT22;4715;51.660;7.082;2022-08-07T10:10:13;25.60;91.80
5086;DHT22;4715;51.660;7.082;2022-08-07T10:12:51;25.70;91.50
5086;DHT22;4715;51.660;7.082;2022-08-07T10:15:28;25.80;90.70
5086;DHT22;4715;51.660;7.082;2022-08-07T10:18:10;25.70;90.60
5086;DHT22;4715;51.660;7.082;2022-08-07T10:20:41;25.80;90.70
5086;DHT22;4715;51.660;7.082;2022-08-07T10:23:33;25.90;90.50
5086;DHT22;4715;51.660;7.082;2022-08-07T10:26:14;26.00;90.30
5086;DHT22;4715;51.660;7.082;2022-08-07T10:28:56;26.10;90.10
5086;DHT22;4715;51.660;7.082;2022-08-07T10:31:48;26.10;89.60
5086;DHT22;4715;51.660;7.082;2022-08-07T10:34:24;26.20;89.20
5086;DHT22;4715;51.660;7.082;2022-08-07T10:36:57;26.30;88.80
5086;DHT22;4715;51.660;7.082;2022-08-07T10:39:32;26.50;88.40
5086;DHT22;4715;51.660;7.082;2022-08-07T10:42:10;26.60;87.70
5086;DHT22;4715;51.660;7.082;2022-08-07T10:44:51;26.60;86.90
5086;DHT22;4715;51.660;7.082;2022-08-07T10:47:23;26.60;86.30
5086;DHT22;4715;51.660;7.082;2022-08-07T10:49:57;26.60;85.00
5086;DHT22;4715;51.660;7.082;2022-08-07T10:52:27;26.60;85.10
5086;DHT22;4715;51.660;7.082;2022-08-07T10:55:00;26.70;84.50
5086;DHT22;4715;51.660;7.082;2022-08-07T10:57:29;26.80;84.40
5086;DHT22;4715;51.660;7.082;2022-08-07T11:00:05;26.80;84.40
5086;DHT22;4715;51.660;7.082;2022-08-07T11:02:32;26.90;83.50
5086;DHT22;4715;51.660;7.082;2022-08-07T11:05:04;26.90;83.40
5086;DHT22;4715;51.660;7.082;2022-08-07T11:07:37;26.80;83.20
5086;DHT22;4715;51.660;7.082;2022-08-07T11:10:03;26.80;83.20
5086;DHT22;4715;51.660;7.082;2022-08-07T11:12:32;26.90;83.20
5086;DHT22;4715;51.660;7.082;2022-08-07T11:15:03;27.00;82.90
5086;DHT22;4715;51.660;7.082;2022-08-07T11:17:29;27.10;82.60
5086;DHT22;4715;51.660;7.082;2022-08-07T11:19:58;27.20;82.50
5086;DHT22;4715;51.660;7.082;2022-08-07T11:22:26;27.30;82.30
5086;DHT22;4715;51.660;7.082;2022-08-07T11:24:52;27.30;81.10
5086;DHT22;4715;51.660;7.082;2022-08-07T11:27:23;27.20;80.60
5086;DHT22;4715;51.660;7.082;2022-08-07T11:29:53;27.20;80.30
5086;DHT22;4715;51.660;7.082;2022-08-07T11:32:27;27.10;80.00
5086;DHT22;4715;51.660;7.082;2022-08-07T11:34:55;27.20;79.20
5086;DHT22;4715;51.660;7.082;2022-08-07T11:37:46;27.20;79.40
5086;DHT22;4715;51.660;7.082;2022-08-07T11:40:18;27.20;79.20
5086;DHT22;4715;51.660;7.082;2022-08-07T11:42:52;27.20;80.10
5086;DHT22;4715;51.660;7.082;2022-08-07T11:45:25;27.20;78.60
5086;DHT22;4715;51.660;7.082;2022-08-07T11:48:03;27.00;78.70
5086;DHT22;4715;51.660;7.082;2022-08-07T11:50:36;26.90;78.90
5086;DHT22;4715;51.660;7.082;2022-08-07T11:53:12;26.90;78.80
5086;DHT22;4715;51.660;7.082;2022-08-07T11:55:50;27.00;78.80
5086;DHT22;4715;51.660;7.082;2022-08-07T11:58:24;27.10;78.70
5086;DHT22;4715;51.660;7.082;2022-08-07T12:00:57;27.30;78.20
5086;DHT22;4715;51.660;7.082;2022-08-07T12:03:48;27.40;77.10
5086;DHT22;4715;51.660;7.082;2022-08-07T12:09:08;27.70;77.20
5086;DHT22;4715;51.660;7.082;2022-08-07T12:11:38;27.70;75.80
5086;DHT22;4715;51.660;7.082;2022-08-07T12:14:02;27.60;75.20
5086;DHT22;4715;51.660;7.082;2022-08-07T12:16:34;27.40;74.80
5086;DHT22;4715;51.660;7.082;2022-08-07T12:19:07;27.30;74.10
5086;DHT22;4715;51.660;7.082;2022-08-07T12:21:36;27.20;73.20
5086;DHT22;4715;51.660;7.082;2022-08-07T12:24:07;27.20;74.00
5086;DHT22;4715;51.660;7.082;2022-08-07T12:26:40;27.40;74.00
5086;DHT22;4715;51.660;7.082;2022-08-07T12:29:08;27.60;73.80
5086;DHT22;4715;51.660;7.082;2022-08-07T12:31:36;27.70;73.30
5086;DHT22;4715;51.660;7.082;2022-08-07T12:34:01;27.90;73.20
5086;DHT22;4715;51.660;7.082;2022-08-07T12:36:25;28.10;73.20
5086;DHT22;4715;51.660;7.082;2022-08-07T12:38:47;28.30;73.10
5086;DHT22;4715;51.660;7.082;2022-08-07T12:41:10;28.40;72.40
5086;DHT22;4715;51.660;7.082;2022-08-07T12:43:34;28.50;71.80
5086;DHT22;4715;51.660;7.082;2022-08-07T12:46:07;28.40;71.30
5086;DHT22;4715;51.660;7.082;2022-08-07T12:48:38;28.30;70.80
5086;DHT22;4715;51.660;7.082;2022-08-07T12:51:10;28.20;70.70
5086;DHT22;4715;51.660;7.082;2022-08-07T12:53:39;28.20;70.90
5086;DHT22;4715;51.660;7.082;2022-08-07T12:56:09;28.30;70.70
5086;DHT22;4715;51.660;7.082;2022-08-07T12:58:35;28.20;69.00
5086;DHT22;4715;51.660;7.082;2022-08-07T13:01:05;28.10;69.80
5086;DHT22;4715;51.660;7.082;2022-08-07T13:03:56;28.10;70.00
5086;DHT22;4715;51.660;7.082;2022-08-07T13:06:33;28.10;70.00
5086;DHT22;4715;51.660;7.082;2022-08-07T13:09:08;28.20;70.00
5086;DHT22;4715;51.660;7.082;2022-08-07T13:11:46;28.30;70.00
5086;DHT22;4715;51.660;7.082;2022-08-07T13:14:17;28.40;69.60
5086;DHT22;4715;51.660;7.082;2022-08-07T13:16:44;28.40;69.50
5086;DHT22;4715;51.660;7.082;2022-08-07T13:19:20;28.30;69.50
5086;DHT22;4715;51.660;7.082;2022-08-07T13:21:53;28.20;69.50
5086;DHT22;4715;51.660;7.082;2022-08-07T13:24:21;28.10;69.40
5086;DHT22;4715;51.660;7.082;2022-08-07T13:26:53;28.00;69.40
5086;DHT22;4715;51.660;7.082;2022-08-07T13:29:22;28.00;68.90
5086;DHT22;4715;51.660;7.082;2022-08-07T13:31:49;27.90;68.50
5086;DHT22;4715;51.660;7.082;2022-08-07T13:34:18;27.80;68.50
5086;DHT22;4715;51.660;7.082;2022-08-07T13:36:45;27.80;69.10
5086;DHT22;4715;51.660;7.082;2022-08-07T13:39:19;28.00;69.20
5086;DHT22;4715;51.660;7.082;2022-08-07T13:41:47;28.20;69.20
5086;DHT22;4715;51.660;7.082;2022-08-07T13:44:11;28.30;69.30
5086;DHT22;4715;51.660;7.082;2022-08-07T13:46:36;28.40;68.70
5086;DHT22;4715;51.660;7.082;2022-08-07T13:49:02;28.40;68.10
5086;DHT22;4715;51.660;7.082;2022-08-07T13:51:26;28.30;68.10
5086;DHT22;4715;51.660;7.082;2022-08-07T13:53:57;28.20;67.90
5086;DHT22;4715;51.660;7.082;2022-08-07T13:56:22;28.00;67.80
5086;DHT22;4715;51.660;7.082;2022-08-07T13:58:45;27.70;68.00
5086;DHT22;4715;51.660;7.082;2022-08-07T14:01:27;27.60;68.40
5086;DHT22;4715;51.660;7.082;2022-08-07T14:03:51;27.40;68.50
5086;DHT22;4715;51.660;7.082;2022-08-07T14:06:15;27.30;68.60
5086;DHT22;4715;51.660;7.082;2022-08-07T14:08:41;27.20;68.90
5086;DHT22;4715;51.660;7.082;2022-08-07T14:11:06;27.20;69.00
5086;DHT22;4715;51.660;7.082;2022-08-07T14:13:29;27.30;69.10
5086;DHT22;4715;51.660;7.082;2022-08-07T14:15:55;27.40;69.00
5086;DHT22;4715;51.660;7.082;2022-08-07T14:18:25;27.50;69.00
5086;DHT22;4715;51.660;7.082;2022-08-07T14:20:49;27.60;68.80
5086;DHT22;4715;51.660;7.082;2022-08-07T14:23:15;27.70;69.10
5086;DHT22;4715;51.660;7.082;2022-08-07T14:25:39;27.80;69.00
5086;DHT22;4715;51.660;7.082;2022-08-07T14:28:06;27.80;69.00
5086;DHT22;4715;51.660;7.082;2022-08-07T14:30:31;27.90;68.90
5086;DHT22;4715;51.660;7.082;2022-08-07T14:32:55;27.80;68.80
5086;DHT22;4715;51.660;7.082;2022-08-07T14:35:24;27.80;68.40
5086;DHT22;4715;51.660;7.082;2022-08-07T14:37:49;27.70;68.40
5086;DHT22;4715;51.660;7.082;2022-08-07T14:40:14;27.60;68.60
5086;DHT22;4715;51.660;7.082;2022-08-07T14:42:37;27.60;68.60
5086;DHT22;4715;51.660;7.082;2022-08-07T14:45:04;27.70;68.80
5086;DHT22;4715;51.660;7.082;2022-08-07T14:47:30;27.70;68.70
5086;DHT22;4715;51.660;7.082;2022-08-07T14:49:54;27.70;68.60
5086;DHT22;4715;51.660;7.082;2022-08-07T14:52:17;27.60;68.60
5086;DHT22;4715;51.660;7.082;2022-08-07T14:54:41;27.50;68.60
5086;DHT22;4715;51.660;7.082;2022-08-07T14:57:08;27.50;68.70
5086;DHT22;4715;51.660;7.082;2022-08-07T14:59:33;27.50;68.70
5086;DHT22;4715;51.660;7.082;2022-08-07T15:02:08;27.40;68.80
5086;DHT22;4715;51.660;7.082;2022-08-07T15:04:30;27.40;68.80
5086;DHT22;4715;51.660;7.082;2022-08-07T15:06:53;27.40;68.90
5086;DHT22;4715;51.660;7.082;2022-08-07T15:09:17;27.40;68.90
5086;DHT22;4715;51.660;7.082;2022-08-07T15:11:43;27.50;68.90
5086;DHT22;4715;51.660;7.082;2022-08-07T15:14:14;27.40;68.80
5086;DHT22;4715;51.660;7.082;2022-08-07T15:16:38;27.40;68.70
5086;DHT22;4715;51.660;7.082;2022-08-07T15:19:14;27.40;68.70
5086;DHT22;4715;51.660;7.082;2022-08-07T15:21:41;27.30;68.70
5086;DHT22;4715;51.660;7.082;2022-08-07T15:24:08;27.40;68.90
5086;DHT22;4715;51.660;7.082;2022-08-07T15:26:34;27.40;68.90
5086;DHT22;4715;51.660;7.082;2022-08-07T15:28:58;27.40;68.90
5086;DHT22;4715;51.660;7.082;2022-08-07T15:31:22;27.30;68.30
5086;DHT22;4715;51.660;7.082;2022-08-07T15:33:45;27.20;68.40
5086;DHT22;4715;51.660;7.082;2022-08-07T15:36:10;27.20;68.60
5086;DHT22;4715;51.660;7.082;2022-08-07T15:38:36;27.20;68.70
5086;DHT22;4715;51.660;7.082;2022-08-07T15:41:03;27.30;68.90
5086;DHT22;4715;51.660;7.082;2022-08-07T15:43:29;27.30;69.00
5086;DHT22;4715;51.660;7.082;2022-08-07T15:45:55;27.30;69.10
5086;DHT22;4715;51.660;7.082;2022-08-07T15:48:22;27.30;69.20
5086;DHT22;4715;51.660;7.082;2022-08-07T15:50:47;27.40;69.40
5086;DHT22;4715;51.660;7.082;2022-08-07T15:53:16;27.30;69.20
5086;DHT22;4715;51.660;7.082;2022-08-07T15:55:42;27.30;69.30
5086;DHT22;4715;51.660;7.082;2022-08-07T15:58:06;27.30;69.40
5086;DHT22;4715;51.660;7.082;2022-08-07T16:00:31;27.40;69.70
5086;DHT22;4715;51.660;7.082;2022-08-07T16:02:56;27.40;69.70
5086;DHT22;4715;51.660;7.082;2022-08-07T16:05:20;27.40;69.80
5086;DHT22;4715;51.660;7.082;2022-08-07T16:07:48;27.40;69.80
5086;DHT22;4715;51.660;7.082;2022-08-07T16:10:15;27.40;69.90